Time;durP1;ratioP1;P1;durP2;ratioP2;P2;SDS_P1;SDS_P2;PMS_P1;PMS_P2;Temp;Humidity;BMP_temperature;BMP_pressure;BME280_temperature;BME280_humidity;BME280_pressure;Samples;Min_cycle;Max_cycle;Signal;HPM_P1;HPM_P2
2023/04/09 00:01:09;;;;;;;39.17;25.83;;;9.30;99.90;;;;;;5047385;28;20123;-58
2023/04/09 00:03:36;;;;;;;39.63;25.85;;;9.30;99.90;;;;;;5044595;28;20546;-59
2023/04/09 00:06:03;;;;;;;39.15;26.48;;;9.20;99.90;;;;;;5046381;28;20111;-58
2023/04/09 00:08:29;;;;;;;40.25;26.52;;;9.10;99.90;;;;;;5043567;28;20085;-58
2023/04/09 00:10:56;;;;;;;38.25;25.08;;;8.90;99.90;;;;;;5051337;28;20079;-58
2023/04/09 00:13:21;;;;;;;36.92;25.75;;;8.80;99.90;;;;;;5039187;28;20270;-58
2023/04/09 00:15:47;;;;;;;42.03;28.15;;;8.60;99.90;;;;;;5043251;28;20048;-58
2023/04/09 00:18:13;;;;;;;41.58;28.23;;;8.80;99.90;;;;;;5043394;28;20068;-58
2023/04/09 00:20:39;;;;;;;42.65;28.15;;;8.70;99.90;;;;;;5048577;28;20040;-58
2023/04/09 00:23:05;;;;;;;41.65;28.65;;;8.60;99.90;;;;;;5050768;28;20032;-58
2023/04/09 00:25:31;;;;;;;39.80;26.35;;;8.60;99.90;;;;;;5056879;28;20041;-58
2023/04/09 00:27:56;;;;;;;39.47;26.25;;;8.50;99.90;;;;;;5042782;28;20048;-58
2023/04/09 00:30:22;;;;;;;38.80;26.35;;;8.40;99.90;;;;;;5046402;28;20412;-59
2023/04/09 00:32:48;;;;;;;46.10;28.40;;;;;;;;;;5043719;28;20120;-58
2023/04/09 00:35:15;;;;;;;45.40;28.45;;;8.50;99.90;;;;;;5043014;28;20452;-58
2023/04/09 00:37:40;;;;;;;40.83;27.48;;;8.50;99.90;;;;;;5047366;28;20051;-58
2023/04/09 00:40:07;;;;;;;41.67;28.80;;;8.50;99.90;;;;;;5048055;28;20349;-59
2023/04/09 00:42:33;;;;;;;41.92;28.60;;;8.60;99.90;;;;;;5060215;28;20033;-58
2023/04/09 00:44:59;;;;;;;44.67;29.38;;;8.50;99.90;;;;;;5042998;28;20294;-58
2023/04/09 00:47:27;;;;;;;43.85;28.98;;;8.30;99.90;;;;;;5046964;28;20041;-58
2023/04/09 00:49:53;;;;;;;45.25;28.55;;;8.20;99.90;;;;;;5043685;28;20033;-58
2023/04/09 00:52:20;;;;;;;42.58;28.27;;;8.30;99.90;;;;;;5047767;28;20029;-58
2023/04/09 00:54:49;;;;;;;47.28;29.15;;;8.30;99.90;;;;;;5037024;28;20314;-58
2023/04/09 00:57:15;;;;;;;43.17;28.58;;;8.40;99.90;;;;;;5041770;28;20037;-58
2023/04/09 00:59:45;;;;;;;44.60;28.50;;;8.30;99.90;;;;;;5049335;28;20109;-58
2023/04/09 01:02:11;;;;;;;44.78;28.50;;;8.00;99.90;;;;;;5046462;28;20071;-58
2023/04/09 01:04:39;;;;;;;46.08;27.70;;;8.00;99.90;;;;;;5047574;28;20037;-58
2023/04/09 01:07:22;;;;;;;45.28;28.95;;;8.00;99.90;;;;;;5046022;28;20447;-58
2023/04/09 01:09:56;;;;;;;47.58;29.88;;;8.00;99.90;;;;;;5041642;28;20394;-58
2023/04/09 01:12:28;;;;;;;42.47;28.20;;;8.00;99.90;;;;;;5047735;28;20120;-58
2023/04/09 01:15:07;;;;;;;49.70;30.35;;;8.00;99.90;;;;;;5043345;28;20029;-58
2023/04/09 01:17:34;;;;;;;47.60;30.05;;;7.80;99.90;;;;;;5057238;28;20116;-58
2023/04/09 01:20:24;;;;;;;47.38;29.35;;;7.90;99.90;;;;;;5029970;28;20041;-58
2023/04/09 01:23:09;;;;;;;49.67;29.58;;;8.00;99.90;;;;;;5043780;28;20055;-58
2023/04/09 01:26:01;;;;;;;48.90;29.83;;;7.80;99.90;;;;;;5043506;28;20036;-57
2023/04/09 01:28:38;;;;;;;49.63;30.35;;;7.70;99.90;;;;;;5038288;28;20500;-58
2023/04/09 01:31:12;;;;;;;47.03;30.65;;;7.60;99.90;;;;;;5041706;28;20029;-58
2023/04/09 01:33:38;;;;;;;51.25;31.48;;;7.70;99.90;;;;;;5043499;28;20094;-58
2023/04/09 01:36:05;;;;;;;47.67;30.17;;;7.70;99.90;;;;;;5034857;28;20332;-58
2023/04/09 01:38:32;;;;;;;46.75;30.63;;;7.70;99.90;;;;;;5047216;28;20102;-58
2023/04/09 01:40:59;;;;;;;48.95;29.92;;;7.80;99.90;;;;;;5040574;28;20038;-58
2023/04/09 01:43:26;;;;;;;49.33;30.45;;;7.70;99.90;;;;;;5042955;28;20341;-58
2023/04/09 01:45:52;;;;;;;50.00;30.05;;;7.50;99.90;;;;;;5041183;28;20029;-58
2023/04/09 01:48:19;;;;;;;48.20;30.63;;;7.60;99.90;;;;;;5039186;28;20098;-58
2023/04/09 01:50:45;;;;;;;46.28;29.40;;;7.70;99.90;;;;;;5034734;28;20033;-58
2023/04/09 01:53:11;;;;;;;47.83;31.17;;;7.80;99.90;;;;;;5045093;28;20092;-58
2023/04/09 01:55:37;;;;;;;50.15;31.10;;;7.70;99.90;;;;;;5038448;28;20052;-58
2023/04/09 01:58:02;;;;;;;47.83;31.27;;;7.60;99.90;;;;;;5040794;28;20021;-58
2023/04/09 02:00:35;;;;;;;52.15;31.95;;;7.90;99.90;;;;;;5050983;28;20116;-58
2023/04/09 02:03:20;;;;;;;49.60;31.15;;;7.80;99.90;;;;;;5039978;28;20041;-59
2023/04/09 02:06:16;;;;;;;48.15;30.52;;;7.80;99.90;;;;;;5040379;28;20037;-58
2023/04/09 02:08:45;;;;;;;47.55;30.38;;;7.90;99.90;;;;;;5019341;28;20401;-58
2023/04/09 02:11:12;;;;;;;50.10;30.67;;;7.80;99.90;;;;;;5041433;28;20025;-58
2023/04/09 02:13:40;;;;;;;48.17;29.85;;;7.70;99.90;;;;;;5040088;28;20524;-58
2023/04/09 02:16:07;;;;;;;49.35;31.27;;;7.60;99.90;;;;;;5044856;28;20025;-58
2023/04/09 02:18:33;;;;;;;48.17;29.65;;;7.50;99.90;;;;;;5045732;28;20047;-58
2023/04/09 02:20:59;;;;;;;50.83;31.48;;;7.70;99.90;;;;;;5045909;28;20029;-59
2023/04/09 02:23:26;;;;;;;53.75;31.52;;;7.60;99.90;;;;;;5039750;28;20126;-58
2023/04/09 02:25:52;;;;;;;53.20;32.15;;;7.60;99.90;;;;;;5040696;28;20025;-58
2023/04/09 02:28:18;;;;;;;51.40;32.15;;;7.70;99.90;;;;;;5046248;28;20040;-58
2023/04/09 02:30:44;;;;;;;48.53;30.13;;;7.70;99.90;;;;;;5047930;28;20055;-58
2023/04/09 02:33:10;;;;;;;53.40;30.70;;;7.60;99.90;;;;;;5045115;28;20033;-58
2023/04/09 02:35:35;;;;;;;48.75;30.35;;;7.70;99.90;;;;;;5039804;28;20032;-58
2023/04/09 02:38:01;;;;;;;54.83;32.58;;;7.60;99.90;;;;;;5049049;28;20486;-58
2023/04/09 02:40:27;;;;;;;51.33;30.98;;;7.50;99.90;;;;;;5040855;28;20108;-58
2023/04/09 02:42:53;;;;;;;52.38;30.58;;;7.60;99.90;;;;;;5045251;28;20499;-58
2023/04/09 02:45:19;;;;;;;49.78;31.27;;;7.60;99.90;;;;;;5049157;28;20028;-58
2023/04/09 02:47:44;;;;;;;50.33;31.42;;;7.70;99.90;;;;;;5046736;28;20389;-58
2023/04/09 02:50:10;;;;;;;51.63;32.13;;;7.70;99.90;;;;;;5053012;28;20043;-58
2023/04/09 02:52:36;;;;;;;47.30;32.08;;;7.60;99.90;;;;;;5045566;28;20478;-58
2023/04/09 02:55:02;;;;;;;54.35;32.90;;;7.60;99.90;;;;;;5046863;28;20029;-59
2023/04/09 02:57:27;;;;;;;52.20;32.17;;;7.50;99.90;;;;;;5044700;28;20426;-58
2023/04/09 02:59:53;;;;;;;50.25;31.25;;;7.40;99.90;;;;;;5058420;28;20037;-58
2023/04/09 03:02:19;;;;;;;53.13;31.10;;;7.40;99.90;;;;;;5044589;28;20029;-58
2023/04/09 03:04:44;;;;;;;51.08;30.45;;;7.40;99.90;;;;;;5044829;28;20302;-58
2023/04/09 03:07:10;;;;;;;52.72;31.92;;;7.10;99.90;;;;;;5047917;28;20024;-58
2023/04/09 03:09:36;;;;;;;55.38;31.48;;;7.40;99.90;;;;;;5037188;28;20037;-58
2023/04/09 03:12:01;;;;;;;50.83;31.58;;;7.30;99.90;;;;;;5041157;28;20040;-58
2023/04/09 03:14:27;;;;;;;55.78;31.60;;;7.30;99.90;;;;;;5045628;28;20040;-58
2023/04/09 03:16:53;;;;;;;51.00;31.77;;;7.30;99.90;;;;;;5043103;28;20452;-58
2023/04/09 03:19:18;;;;;;;53.22;32.05;;;7.20;99.90;;;;;;5045903;28;20044;-58
2023/04/09 03:21:45;;;;;;;51.28;31.63;;;7.30;99.90;;;;;;5055473;28;20109;-58
2023/04/09 03:24:11;;;;;;;54.03;31.80;;;7.20;99.90;;;;;;5044689;28;20453;-58
2023/04/09 03:26:37;;;;;;;52.75;31.83;;;7.10;99.90;;;;;;5049406;28;20124;-58
2023/04/09 03:29:03;;;;;;;49.70;30.90;;;6.90;99.90;;;;;;5047224;28;20040;-58
2023/04/09 03:31:29;;;;;;;48.30;30.65;;;6.80;99.90;;;;;;5043751;28;20481;-58
2023/04/09 03:33:55;;;;;;;48.90;30.42;;;6.90;99.90;;;;;;5049094;28;20033;-58
2023/04/09 03:36:20;;;;;;;47.08;30.05;;;6.80;99.90;;;;;;5043641;28;20025;-58
2023/04/09 03:38:46;;;;;;;51.75;31.33;;;6.60;99.90;;;;;;5039819;28;20025;-58
2023/04/09 03:41:12;;;;;;;52.40;31.50;;;6.90;99.90;;;;;;5040687;28;20080;-58
2023/04/09 03:43:37;;;;;;;52.13;31.38;;;6.90;99.90;;;;;;5042616;28;20113;-58
2023/04/09 03:46:16;;;;;;;51.33;31.50;;;6.90;99.90;;;;;;5044108;28;20033;-58
2023/04/09 03:48:43;;;;;;;52.28;31.38;;;7.00;99.90;;;;;;5053358;28;20035;-58
2023/04/09 03:51:13;;;;;;;55.08;32.78;;;6.90;99.90;;;;;;5048487;28;20514;-58
2023/04/09 03:53:39;;;;;;;51.88;31.45;;;7.00;99.90;;;;;;5040916;28;20075;-58
2023/04/09 03:56:05;;;;;;;48.97;31.13;;;7.00;99.90;;;;;;5044124;28;20028;-58
2023/04/09 03:58:31;;;;;;;53.72;32.13;;;6.90;99.90;;;;;;5044859;28;20180;-58
2023/04/09 04:00:56;;;;;;;46.67;28.95;;;6.80;99.90;;;;;;5047444;28;20041;-58
2023/04/09 04:03:22;;;;;;;48.75;28.98;;;6.80;99.90;;;;;;5040406;28;20055;-58
2023/04/09 04:05:47;;;;;;;50.42;31.10;;;6.70;99.90;;;;;;5042037;28;20033;-58
2023/04/09 04:08:13;;;;;;;53.25;32.38;;;6.70;99.90;;;;;;5037558;28;20051;-58
2023/04/09 04:10:38;;;;;;;48.05;30.55;;;6.70;99.90;;;;;;5047129;28;20158;-59
2023/04/09 04:13:07;;;;;;;51.75;31.10;;;6.70;99.90;;;;;;5046057;28;20031;-59
2023/04/09 04:15:33;;;;;;;52.08;30.52;;;6.60;99.90;;;;;;5041034;28;20131;-59
2023/04/09 04:17:58;;;;;;;51.70;30.85;;;6.70;99.90;;;;;;5047959;28;20025;-59
2023/04/09 04:20:24;;;;;;;51.13;31.20;;;6.60;99.90;;;;;;5048402;28;20029;-59
2023/04/09 04:22:49;;;;;;;52.78;31.05;;;6.50;99.90;;;;;;5047598;28;20442;-58
2023/04/09 04:25:15;;;;;;;52.22;31.48;;;6.50;99.90;;;;;;5039576;28;20477;-58
2023/04/09 04:27:41;;;;;;;49.75;30.17;;;6.50;99.90;;;;;;5040197;28;20044;-58
2023/04/09 04:30:07;;;;;;;51.40;30.77;;;6.50;99.90;;;;;;5047952;28;20033;-58
2023/04/09 04:32:33;;;;;;;47.10;29.75;;;6.50;99.90;;;;;;5039980;28;20337;-59
2023/04/09 04:34:58;;;;;;;50.00;30.25;;;6.50;99.90;;;;;;5038037;28;20036;-58
2023/04/09 04:37:24;;;;;;;45.03;28.85;;;6.40;99.90;;;;;;5046853;28;20032;-59
2023/04/09 04:39:50;;;;;;;44.90;28.23;;;6.30;99.90;;;;;;5048164;28;20036;-58
2023/04/09 04:42:16;;;;;;;49.60;29.92;;;6.40;99.90;;;;;;5043658;28;20083;-59
2023/04/09 04:44:42;;;;;;;46.42;28.33;;;6.10;99.90;;;;;;5044433;28;20021;-58
2023/04/09 04:47:07;;;;;;;45.15;27.42;;;5.90;99.90;;;;;;5045307;28;20045;-58
2023/04/09 04:49:33;;;;;;;45.38;27.75;;;5.80;99.90;;;;;;5045560;28;20044;-58
2023/04/09 04:51:59;;;;;;;43.70;27.65;;;5.90;99.90;;;;;;5029679;28;20037;-59
2023/04/09 04:54:24;;;;;;;45.33;26.75;;;5.90;99.90;;;;;;5043854;28;20029;-59
2023/04/09 04:56:50;;;;;;;42.70;26.98;;;5.80;99.90;;;;;;5047892;28;20028;-58
2023/04/09 04:59:15;;;;;;;43.00;26.83;;;5.70;99.90;;;;;;5046767;28;20026;-58
2023/04/09 05:01:41;;;;;;;43.47;27.95;;;5.60;99.90;;;;;;5047913;28;20108;-58
2023/04/09 05:04:06;;;;;;;43.03;26.70;;;5.60;99.90;;;;;;5046389;28;20105;-59
2023/04/09 05:06:32;;;;;;;43.70;27.52;;;5.50;99.90;;;;;;5038789;28;20033;-58
2023/04/09 05:08:58;;;;;;;43.25;27.58;;;5.60;99.90;;;;;;5043571;28;20037;-58
2023/04/09 05:11:27;;;;;;;40.38;26.98;;;5.50;99.90;;;;;;5042918;28;20025;-59
2023/04/09 05:13:52;;;;;;;46.53;26.58;;;5.50;99.90;;;;;;5051944;28;20126;-58
2023/04/09 05:16:19;;;;;;;46.13;27.25;;;5.40;99.90;;;;;;5042771;28;20049;-59
2023/04/09 05:18:45;;;;;;;47.70;27.75;;;5.50;99.90;;;;;;5042600;28;20076;-58
2023/04/09 05:21:11;;;;;;;40.40;27.38;;;5.60;99.90;;;;;;5044650;28;20043;-58
2023/04/09 05:23:36;;;;;;;46.88;28.05;;;5.50;99.90;;;;;;5043589;28;20037;-58
2023/04/09 05:26:02;;;;;;;40.97;26.55;;;5.50;99.90;;;;;;5051088;28;20096;-59
2023/04/09 05:28:28;;;;;;;45.13;27.27;;;5.40;99.90;;;;;;5046598;28;20195;-58
2023/04/09 05:30:53;;;;;;;42.72;27.13;;;5.50;99.90;;;;;;5049630;28;20025;-58
2023/04/09 05:33:19;;;;;;;41.20;26.30;;;5.40;99.90;;;;;;5047811;28;20029;-58
2023/04/09 05:35:44;;;;;;;39.45;25.27;;;5.40;99.90;;;;;;5045193;28;20052;-58
2023/04/09 05:38:10;;;;;;;43.08;26.77;;;5.40;99.90;;;;;;5042243;28;20096;-58
2023/04/09 05:40:35;;;;;;;44.38;27.63;;;5.50;99.90;;;;;;5047632;28;20033;-59
2023/04/09 05:43:01;;;;;;;42.97;26.77;;;5.50;99.90;;;;;;5044855;28;20029;-58
2023/04/09 05:45:30;;;;;;;50.00;29.98;;;5.50;99.90;;;;;;5054485;28;20040;-59
2023/04/09 05:47:55;;;;;;;45.47;28.52;;;5.60;99.90;;;;;;5044582;28;20061;-58
2023/04/09 05:50:21;;;;;;;52.17;31.40;;;5.60;99.90;;;;;;5036269;28;20167;-58
2023/04/09 05:52:46;;;;;;;49.17;30.63;;;5.70;99.90;;;;;;5052058;28;20033;-59
2023/04/09 05:55:12;;;;;;;49.65;30.67;;;5.80;99.90;;;;;;5048339;28;20048;-58
2023/04/09 05:57:38;;;;;;;48.67;30.10;;;5.90;99.90;;;;;;5051593;28;20032;-58
2023/04/09 06:00:04;;;;;;;51.83;31.52;;;6.10;99.90;;;;;;5051214;28;20102;-58
2023/04/09 06:02:29;;;;;;;48.25;31.05;;;6.10;99.90;;;;;;5046499;28;20029;-58
2023/04/09 06:04:55;;;;;;;49.42;31.75;;;6.20;99.90;;;;;;5050271;28;20372;-58
2023/04/09 06:07:21;;;;;;;52.92;32.97;;;6.30;99.90;;;;;;5040001;28;20128;-58
2023/04/09 06:09:46;;;;;;;52.47;32.40;;;6.30;99.90;;;;;;5048847;28;20048;-58
2023/04/09 06:12:12;;;;;;;52.30;33.00;;;6.40;99.90;;;;;;5051740;28;20049;-59
2023/04/09 06:14:38;;;;;;;53.05;33.65;;;6.40;99.90;;;;;;5051170;28;20025;-59
2023/04/09 06:17:04;;;;;;;53.28;33.25;;;6.70;99.90;;;;;;5045082;28;20060;-58
2023/04/09 06:19:30;;;;;;;52.63;32.60;;;6.70;99.90;;;;;;5051099;28;20040;-58
2023/04/09 06:21:56;;;;;;;54.05;33.30;;;6.80;99.90;;;;;;5037135;28;20464;-58
2023/04/09 06:24:21;;;;;;;51.05;32.78;;;6.80;99.90;;;;;;5042744;28;20040;-58
2023/04/09 06:26:47;;;;;;;55.08;34.03;;;7.00;99.90;;;;;;5045655;28;20095;-58
2023/04/09 06:29:12;;;;;;;52.60;33.35;;;6.90;99.90;;;;;;5048307;28;20047;-58
2023/04/09 06:31:38;;;;;;;54.13;33.80;;;7.00;99.90;;;;;;5037396;28;20109;-59
2023/04/09 06:34:04;;;;;;;56.55;33.63;;;7.20;99.90;;;;;;5046136;28;20384;-58
2023/04/09 06:36:29;;;;;;;54.88;33.55;;;7.30;99.90;;;;;;5046504;28;20047;-58
2023/04/09 06:38:55;;;;;;;54.38;33.42;;;7.70;99.90;;;;;;5054625;28;20033;-58
2023/04/09 06:41:22;;;;;;;49.20;32.67;;;7.50;99.90;;;;;;5047510;28;20090;-58
2023/04/09 06:43:47;;;;;;;49.33;32.42;;;7.50;99.90;;;;;;5057021;28;20143;-58
2023/04/09 06:46:16;;;;;;;48.45;30.83;;;7.70;99.90;;;;;;5045627;28;20041;-59
2023/04/09 06:48:43;;;;;;;45.13;28.75;;;8.00;99.90;;;;;;5048946;28;20048;-59
2023/04/09 06:51:09;;;;;;;48.83;31.60;;;8.10;99.90;;;;;;5046153;28;20029;-58
2023/04/09 06:53:35;;;;;;;43.13;28.33;;;8.20;99.90;;;;;;5043141;28;20493;-58
2023/04/09 06:56:01;;;;;;;44.72;29.00;;;8.50;99.90;;;;;;5038368;28;20043;-58
2023/04/09 06:58:26;;;;;;;43.08;28.75;;;8.60;99.90;;;;;;5054741;28;20048;-58
2023/04/09 07:00:52;;;;;;;41.22;26.98;;;8.50;99.90;;;;;;5045738;28;20033;-59
2023/04/09 07:03:18;;;;;;;45.17;27.75;;;8.60;99.90;;;;;;5044805;28;20107;-59
2023/04/09 07:05:44;;;;;;;39.75;26.85;;;8.80;99.90;;;;;;5047547;28;20029;-59
2023/04/09 07:08:10;;;;;;;37.60;24.70;;;9.00;99.90;;;;;;5042315;28;20029;-58
2023/04/09 07:10:36;;;;;;;36.20;23.42;;;9.10;99.90;;;;;;5042225;28;20037;-58
2023/04/09 07:13:02;;;;;;;34.67;23.02;;;9.20;99.90;;;;;;5040319;28;20078;-58
2023/04/09 07:15:27;;;;;;;35.20;22.40;;;9.10;99.90;;;;;;5040812;28;20457;-59
2023/04/09 07:17:53;;;;;;;31.40;21.27;;;9.30;99.90;;;;;;5034073;28;20037;-58
2023/04/09 07:20:18;;;;;;;30.73;20.70;;;9.30;99.90;;;;;;5051551;28;20024;-58
2023/04/09 07:22:44;;;;;;;31.27;20.52;;;9.20;99.90;;;;;;5051281;28;20075;-58
2023/04/09 07:25:10;;;;;;;28.85;20.02;;;9.30;99.90;;;;;;5049394;28;20033;-58
2023/04/09 07:27:35;;;;;;;31.30;19.48;;;9.40;99.90;;;;;;5030570;28;20052;-58
2023/04/09 07:30:02;;;;;;;27.77;18.98;;;9.40;99.90;;;;;;5049855;28;20087;-58
2023/04/09 07:32:27;;;;;;;27.70;18.33;;;9.50;99.90;;;;;;5035653;28;20124;-58
2023/04/09 07:34:54;;;;;;;24.88;17.42;;;9.60;99.90;;;;;;5047266;28;20123;-59
2023/04/09 07:37:20;;;;;;;26.23;17.73;;;9.70;99.90;;;;;;5052588;28;20033;-58
2023/04/09 07:39:46;;;;;;;27.70;18.35;;;9.70;99.90;;;;;;5035353;28;20037;-58
2023/04/09 07:42:12;;;;;;;26.50;18.73;;;9.80;99.90;;;;;;5046814;28;20035;-59
2023/04/09 07:44:38;;;;;;;25.80;17.50;;;10.00;99.90;;;;;;5050652;28;20427;-59
2023/04/09 07:47:05;;;;;;;23.48;16.55;;;10.10;99.90;;;;;;5040203;28;20529;-59
2023/04/09 07:49:31;;;;;;;26.33;16.75;;;10.00;99.90;;;;;;5044690;28;20527;-59
2023/04/09 07:51:58;;;;;;;23.63;17.23;;;10.00;99.90;;;;;;5044230;28;20045;-58
2023/04/09 07:54:24;;;;;;;24.90;16.52;;;10.10;99.90;;;;;;5039963;28;20117;-59
2023/04/09 07:56:49;;;;;;;24.08;16.33;;;10.20;99.90;;;;;;5042534;28;20116;-58
2023/04/09 07:59:15;;;;;;;23.85;16.92;;;10.40;99.90;;;;;;5051845;28;20430;-58
2023/04/09 08:01:41;;;;;;;21.42;15.15;;;10.50;99.90;;;;;;5044419;28;20112;-58
2023/04/09 08:04:07;;;;;;;22.05;15.75;;;10.40;99.90;;;;;;5045316;28;20022;-59
2023/04/09 08:06:32;;;;;;;19.65;14.77;;;10.40;99.90;;;;;;5038898;28;20726;-59
2023/04/09 08:08:58;;;;;;;19.75;14.40;;;10.50;99.90;;;;;;5045034;28;20037;-59
2023/04/09 08:11:24;;;;;;;22.20;14.80;;;10.60;99.90;;;;;;5050775;28;20047;-59
2023/04/09 08:13:54;;;;;;;19.58;14.85;;;10.70;99.90;;;;;;5043801;28;20034;-59
2023/04/09 08:16:22;;;;;;;20.67;14.38;;;10.70;99.90;;;;;;5041400;28;20082;-60
2023/04/09 08:18:48;;;;;;;22.17;15.40;;;10.80;99.90;;;;;;5038329;28;20032;-58
2023/04/09 08:21:14;;;;;;;20.00;14.43;;;10.90;99.90;;;;;;5036259;28;20041;-59
2023/04/09 08:23:40;;;;;;;19.23;13.57;;;11.00;99.90;;;;;;5043502;28;20230;-59
2023/04/09 08:26:05;;;;;;;16.60;12.13;;;11.00;99.90;;;;;;5043427;28;20429;-58
2023/04/09 08:28:31;;;;;;;16.88;12.15;;;11.00;99.90;;;;;;5044786;28;20160;-58
2023/04/09 08:30:57;;;;;;;16.05;11.50;;;11.10;99.90;;;;;;5047341;28;20044;-58
2023/04/09 08:33:22;;;;;;;13.57;9.90;;;11.10;99.90;;;;;;5039598;28;20037;-58
2023/04/09 08:35:48;;;;;;;16.40;10.73;;;11.20;99.90;;;;;;5040309;28;20076;-58
2023/04/09 08:38:14;;;;;;;16.45;11.38;;;11.30;99.90;;;;;;5037906;28;20251;-58
2023/04/09 08:40:40;;;;;;;14.02;10.13;;;11.30;99.90;;;;;;5050612;28;20033;-58
2023/04/09 08:43:07;;;;;;;15.80;10.75;;;11.40;99.90;;;;;;5041855;28;20475;-59
2023/04/09 08:45:33;;;;;;;14.02;9.95;;;11.50;99.90;;;;;;5049024;28;20099;-58
2023/04/09 08:48:02;;;;;;;12.77;9.75;;;11.50;99.90;;;;;;5039054;28;20033;-58
2023/04/09 08:50:29;;;;;;;15.15;11.00;;;11.60;99.90;;;;;;5042391;28;20041;-58
2023/04/09 08:52:57;;;;;;;14.00;10.20;;;11.60;99.90;;;;;;5041112;28;20037;-58
2023/04/09 08:55:22;;;;;;;12.73;9.20;;;11.60;99.90;;;;;;5044682;28;20581;-59
2023/04/09 08:57:48;;;;;;;13.05;9.27;;;11.70;99.90;;;;;;5045005;28;20045;-58
2023/04/09 09:00:14;;;;;;;12.27;9.50;;;11.80;99.90;;;;;;5045274;28;20061;-58
2023/04/09 09:03:00;;;;;;;12.70;9.30;;;11.90;99.90;;;;;;5043579;28;20397;-58
2023/04/09 09:05:39;;;;;;;13.38;9.75;;;12.00;99.90;;;;;;5035127;28;20505;-59
2023/04/09 09:08:22;;;;;;;13.38;10.15;;;12.10;99.90;;;;;;5039654;28;20044;-58
2023/04/09 09:10:48;;;;;;;12.37;8.93;;;12.00;99.90;;;;;;5048939;28;20056;-58
2023/04/09 09:13:24;;;;;;;11.88;9.15;;;12.20;99.90;;;;;;5050593;28;20024;-58
2023/04/09 09:15:54;;;;;;;10.82;8.50;;;12.20;99.90;;;;;;5040194;28;20079;-58
2023/04/09 09:18:20;;;;;;;10.77;7.72;;;12.30;99.90;;;;;;5042834;28;20116;-58
2023/04/09 09:20:46;;;;;;;12.80;8.75;;;12.30;99.90;;;;;;5048099;28;20056;-58
2023/04/09 09:23:12;;;;;;;12.88;8.45;;;12.40;99.90;;;;;;5041276;28;20029;-58
2023/04/09 09:25:39;;;;;;;10.85;8.68;;;12.40;99.90;;;;;;5046647;28;20049;-58
2023/04/09 09:28:11;;;;;;;11.73;9.75;;;12.30;99.90;;;;;;5049935;28;20244;-58
2023/04/09 09:30:39;;;;;;;13.45;9.00;;;12.40;99.90;;;;;;5042690;28;20036;-58
2023/04/09 09:33:11;;;;;;;11.50;8.40;;;12.50;99.90;;;;;;5039835;28;20040;-58
2023/04/09 09:35:53;;;;;;;11.52;8.63;;;12.40;99.90;;;;;;5044170;28;20034;-58
2023/04/09 09:38:19;;;;;;;14.10;10.27;;;12.60;99.90;;;;;;5041687;28;20438;-58
2023/04/09 09:40:45;;;;;;;12.20;9.02;;;12.70;99.90;;;;;;5043160;28;20476;-58
2023/04/09 09:43:13;;;;;;;14.85;10.32;;;12.60;99.90;;;;;;5038493;28;20034;-58
2023/04/09 09:45:39;;;;;;;13.93;10.07;;;12.70;99.90;;;;;;5042478;28;20044;-58
2023/04/09 09:48:05;;;;;;;12.82;9.13;;;12.60;99.90;;;;;;5042144;28;20041;-58
2023/04/09 09:50:34;;;;;;;11.38;8.32;;;12.60;99.90;;;;;;5043252;28;20037;-58
2023/04/09 09:53:10;;;;;;;13.15;9.10;;;12.70;99.90;;;;;;5046266;28;20055;-58
2023/04/09 09:55:47;;;;;;;11.75;8.40;;;12.90;99.90;;;;;;5042315;28;20072;-57
2023/04/09 09:58:22;;;;;;;11.10;7.38;;;12.70;99.90;;;;;;5048324;28;20054;-57
2023/04/09 10:00:50;;;;;;;11.13;7.97;;;12.60;99.90;;;;;;5047371;28;20033;-57
2023/04/09 10:03:28;;;;;;;10.77;7.95;;;12.90;99.90;;;;;;5048024;28;20059;-58
2023/04/09 10:05:53;;;;;;;9.70;7.38;;;13.00;99.90;;;;;;5046135;28;20029;-58
2023/04/09 10:08:22;;;;;;;9.32;6.72;;;13.10;99.90;;;;;;5048343;28;20111;-58
2023/04/09 10:10:49;;;;;;;8.60;6.32;;;13.40;99.90;;;;;;5044554;28;20032;-58
2023/04/09 10:13:37;;;;;;;8.48;6.00;;;13.30;99.90;;;;;;5046129;28;20024;-58
2023/04/09 10:16:04;;;;;;;7.10;5.50;;;13.40;99.90;;;;;;5034194;28;20021;-59
2023/04/09 10:18:34;;;;;;;9.15;5.95;;;13.40;99.90;;;;;;5052502;28;20025;-58
2023/04/09 10:21:26;;;;;;;7.45;5.65;;;13.40;99.90;;;;;;5047562;28;20453;-58
2023/04/09 10:23:52;;;;;;;8.23;5.88;;;13.60;99.90;;;;;;5055800;28;20025;-58
2023/04/09 10:26:19;;;;;;;8.45;6.38;;;13.50;99.90;;;;;;5037604;28;20029;-58
2023/04/09 10:28:44;;;;;;;8.68;6.25;;;13.50;99.90;;;;;;5047168;28;20039;-58
2023/04/09 10:31:10;;;;;;;8.35;6.30;;;13.50;99.90;;;;;;5049649;28;20383;-58
2023/04/09 10:33:37;;;;;;;8.63;6.13;;;13.60;99.90;;;;;;5047020;28;20061;-58
2023/04/09 10:36:08;;;;;;;7.63;6.03;;;13.60;99.90;;;;;;5038418;28;20034;-58
2023/04/09 10:38:45;;;;;;;9.57;6.43;;;13.60;99.90;;;;;;5045932;28;20309;-57
2023/04/09 10:41:15;;;;;;;8.65;6.10;;;13.60;99.90;;;;;;5051603;28;20022;-57
2023/04/09 10:43:42;;;;;;;9.75;6.50;;;13.60;99.90;;;;;;5044286;28;20059;-58
2023/04/09 10:46:33;;;;;;;11.43;8.00;;;13.60;99.90;;;;;;5050224;28;20025;-57
2023/04/09 10:49:10;;;;;;;8.18;6.55;;;13.60;99.90;;;;;;5048359;28;20491;-58
2023/04/09 10:51:38;;;;;;;8.65;6.18;;;13.60;99.90;;;;;;5031916;28;20120;-57
2023/04/09 10:54:05;;;;;;;9.05;6.70;;;13.50;99.90;;;;;;5043489;28;20045;-57
2023/04/09 10:56:30;;;;;;;10.27;7.45;;;13.60;99.90;;;;;;5038532;28;20041;-58
2023/04/09 10:58:56;;;;;;;9.90;6.95;;;13.60;99.90;;;;;;5051933;28;20089;-58
2023/04/09 11:01:22;;;;;;;11.35;8.27;;;13.70;99.90;;;;;;5044778;28;20060;-58
2023/04/09 11:04:07;;;;;;;9.52;7.00;;;13.80;99.90;;;;;;5044708;28;20067;-58
2023/04/09 11:06:36;;;;;;;9.23;7.13;;;13.80;99.90;;;;;;5038704;28;20103;-57
2023/04/09 11:09:03;;;;;;;9.32;7.43;;;13.80;99.90;;;;;;5040233;28;20032;-59
2023/04/09 11:11:29;;;;;;;9.32;6.80;;;13.70;99.90;;;;;;5032134;28;20366;-57
2023/04/09 11:14:00;;;;;;;8.93;7.05;;;13.50;99.90;;;;;;5039984;28;20123;-58
2023/04/09 11:16:28;;;;;;;9.73;7.55;;;13.50;99.90;;;;;;5040653;28;20032;-57
2023/04/09 11:18:55;;;;;;;9.25;7.55;;;13.80;99.90;;;;;;5043412;28;20485;-57
2023/04/09 11:21:20;;;;;;;9.93;7.65;;;13.70;99.90;;;;;;5039072;28;20051;-57
2023/04/09 11:23:52;;;;;;;10.38;7.75;;;13.60;99.90;;;;;;5044153;28;20040;-58
2023/04/09 11:26:23;;;;;;;10.23;7.80;;;13.60;99.90;;;;;;5045693;28;20604;-57
2023/04/09 11:28:49;;;;;;;9.93;7.10;;;13.70;99.90;;;;;;5055771;28;20043;-58
2023/04/09 11:31:15;;;;;;;9.90;7.03;;;13.70;99.90;;;;;;5039274;28;20528;-57
2023/04/09 11:33:44;;;;;;;9.30;7.35;;;13.70;99.90;;;;;;5039159;28;20041;-57
2023/04/09 11:36:10;;;;;;;10.48;7.22;;;13.70;99.90;;;;;;5040113;28;20029;-58
2023/04/09 11:38:37;;;;;;;8.40;6.28;;;13.60;99.90;;;;;;5045482;28;20021;-58
2023/04/09 11:41:03;;;;;;;7.82;6.60;;;13.60;99.90;;;;;;5040829;28;20025;-58
2023/04/09 11:43:28;;;;;;;7.55;6.28;;;13.70;99.90;;;;;;5044239;28;20082;-57
2023/04/09 11:45:54;;;;;;;8.05;6.18;;;13.80;99.90;;;;;;5047789;28;20483;-58
2023/04/09 11:48:22;;;;;;;7.72;5.80;;;13.90;99.90;;;;;;5040132;28;20025;-57
2023/04/09 11:50:48;;;;;;;7.97;6.22;;;14.00;99.90;;;;;;5037398;28;20037;-57
2023/04/09 11:53:18;;;;;;;7.38;5.78;;;14.10;99.90;;;;;;5041089;28;20108;-57
2023/04/09 11:55:47;;;;;;;8.52;6.47;;;14.10;99.90;;;;;;5038746;28;20517;-57
2023/04/09 11:58:12;;;;;;;8.65;6.63;;;14.20;99.90;;;;;;5048004;28;20020;-57
2023/04/09 12:00:40;;;;;;;8.38;6.70;;;14.20;99.90;;;;;;5046977;28;20029;-57
2023/04/09 12:03:05;;;;;;;8.88;7.15;;;14.10;99.90;;;;;;5047607;28;20094;-57
2023/04/09 12:05:33;;;;;;;9.55;6.70;;;14.10;99.90;;;;;;5038419;28;20042;-58
2023/04/09 12:08:00;;;;;;;9.25;7.05;;;14.10;99.90;;;;;;5046181;28;20036;-57
2023/04/09 12:10:32;;;;;;;8.45;6.22;;;14.20;99.90;;;;;;5035384;28;20092;-57
2023/04/09 12:13:02;;;;;;;9.00;7.03;;;14.30;99.90;;;;;;5051653;28;20528;-57
2023/04/09 12:15:31;;;;;;;8.88;6.85;;;14.30;99.90;;;;;;5046219;28;20040;-57
2023/04/09 12:17:57;;;;;;;8.88;6.97;;;14.20;99.90;;;;;;5040797;28;20092;-58
2023/04/09 12:20:30;;;;;;;8.68;6.70;;;14.20;99.90;;;;;;5037943;28;20124;-57
2023/04/09 12:22:56;;;;;;;8.70;6.70;;;14.30;99.90;;;;;;5042023;28;20224;-57
2023/04/09 12:25:22;;;;;;;8.25;6.43;;;14.50;99.90;;;;;;5045595;28;20535;-57
2023/04/09 12:27:47;;;;;;;8.35;5.68;;;14.40;99.90;;;;;;5043584;28;20045;-57
2023/04/09 12:30:13;;;;;;;8.05;6.43;;;14.60;99.90;;;;;;5047156;28;20421;-57
2023/04/09 12:32:39;;;;;;;8.05;6.15;;;14.70;99.90;;;;;;5036572;28;20247;-57
2023/04/09 12:35:05;;;;;;;8.90;6.38;;;14.80;99.90;;;;;;5039863;28;20492;-57
2023/04/09 12:37:30;;;;;;;9.38;6.72;;;14.80;99.90;;;;;;5039303;28;20469;-57
2023/04/09 12:39:56;;;;;;;8.77;7.10;;;14.90;99.90;;;;;;5051085;28;20036;-57